X  Close Metar Aviation Weather Data     EHRD Rotterdam The Hague Airport
Temperature
1°C Temperature
0°C Dewpoint
93% Humidity



Wind
10 KM/H
6 MPH
3 M/S
5 KTS



30°
NNE
Current Conditions

Mostly Cloudy Mostly Cloudy
Pressure 999.92 (hPa) - 29.53 (inHg)
Visibility 6.2 (mile) - 10 (km)
Airport
Airport-code EHRD

Location: Rotterdam The Hague Airport
Distance: 16 (km)

Metar:
EHRD 250425Z AUTO 03005KT 360V060 9999 BKN009 BKN011 01/M00 Q1000 NOSIG

Time: 25-01-2021 05:25 CET